sensor_id;sensor_type;location;lat;lon;timestamp;pressure;altitude;pressure_sealevel;temperature;humidity
68758;BME280;55747;51.998;4.466;2023-05-07T00:02:17;56496.44;;;-144.48;100.00
68758;BME280;55747;51.998;4.466;2023-05-07T00:04:43;56490.25;;;-144.48;100.00
68758;BME280;55747;51.998;4.466;2023-05-07T00:07:09;56510.94;;;-144.48;100.00
68758;BME280;55747;51.998;4.466;2023-05-07T00:09:34;56484.06;;;-144.48;100.00
68758;BME280;55747;51.998;4.466;2023-05-07T00:11:59;56484.06;;;-144.48;100.00
68758;BME280;55747;51.998;4.466;2023-05-07T00:14:24;56513.00;;;-144.48;100.00
68758;BME280;55747;51.998;4.466;2023-05-07T00:16:50;56517.13;;;-144.48;100.00
68758;BME280;55747;51.998;4.466;2023-05-07T00:19:15;56484.06;;;-144.48;100.00
68758;BME280;55747;51.998;4.466;2023-05-07T00:21:40;56510.94;;;-144.48;100.00
68758;BME280;55747;51.998;4.466;2023-05-07T00:24:05;56500.59;;;-144.48;100.00
68758;BME280;55747;51.998;4.466;2023-05-07T00:26:31;56506.78;;;-144.48;100.00
68758;BME280;55747;51.998;4.466;2023-05-07T00:28:56;56486.13;;;-144.48;100.00
68758;BME280;55747;51.998;4.466;2023-05-07T00:31:21;56527.47;;;-144.48;100.00
68758;BME280;55747;51.998;4.466;2023-05-07T00:33:46;56502.66;;;-144.48;100.00
68758;BME280;55747;51.998;4.466;2023-05-07T00:36:11;56521.25;;;-144.48;100.00
68758;BME280;55747;51.998;4.466;2023-05-07T00:38:37;56498.53;;;-144.48;100.00
68758;BME280;55747;51.998;4.466;2023-05-07T00:41:02;56515.06;;;-144.48;100.00
68758;BME280;55747;51.998;4.466;2023-05-07T00:43:27;56496.44;;;-144.48;100.00
68758;BME280;55747;51.998;4.466;2023-05-07T00:45:52;56525.41;;;-144.48;100.00
68758;BME280;55747;51.998;4.466;2023-05-07T00:48:18;56492.31;;;-144.48;100.00
68758;BME280;55747;51.998;4.466;2023-05-07T00:50:43;56496.44;;;-144.48;100.00
68758;BME280;55747;51.998;4.466;2023-05-07T00:53:09;56510.94;;;-144.48;100.00
68758;BME280;55747;51.998;4.466;2023-05-07T00:55:34;56486.13;;;-144.48;100.00
68758;BME280;55747;51.998;4.466;2023-05-07T00:58:00;56510.94;;;-144.48;100.00
68758;BME280;55747;51.998;4.466;2023-05-07T01:00:25;56531.59;;;-144.48;100.00
68758;BME280;55747;51.998;4.466;2023-05-07T01:02:51;56492.31;;;-144.48;100.00
68758;BME280;55747;51.998;4.466;2023-05-07T01:05:17;56496.44;;;-144.48;100.00
68758;BME280;55747;51.998;4.466;2023-05-07T01:07:43;56506.78;;;-144.48;100.00
68758;BME280;55747;51.998;4.466;2023-05-07T01:10:08;56498.53;;;-144.48;100.00
68758;BME280;55747;51.998;4.466;2023-05-07T01:12:35;56494.38;;;-144.48;100.00
68758;BME280;55747;51.998;4.466;2023-05-07T01:15:00;56529.53;;;-144.48;100.00
68758;BME280;55747;51.998;4.466;2023-05-07T01:17:26;56492.31;;;-144.48;100.00
68758;BME280;55747;51.998;4.466;2023-05-07T01:19:51;56508.84;;;-144.48;100.00
68758;BME280;55747;51.998;4.466;2023-05-07T01:22:24;56500.59;;;-144.48;100.00
68758;BME280;55747;51.998;4.466;2023-05-07T01:24:51;56521.25;;;-144.48;100.00
68758;BME280;55747;51.998;4.466;2023-05-07T01:27:17;56481.97;;;-144.48;100.00
68758;BME280;55747;51.998;4.466;2023-05-07T01:29:42;56477.84;;;-144.48;100.00
68758;BME280;55747;51.998;4.466;2023-05-07T01:32:07;56469.56;;;-144.48;100.00
68758;BME280;55747;51.998;4.466;2023-05-07T01:34:33;56438.56;;;-144.48;100.00
68758;BME280;55747;51.998;4.466;2023-05-07T01:37:01;56517.13;;;-144.48;100.00
68758;BME280;55747;51.998;4.466;2023-05-07T01:39:27;56529.53;;;-144.48;100.00
68758;BME280;55747;51.998;4.466;2023-05-07T01:41:56;56521.25;;;-144.48;100.00
68758;BME280;55747;51.998;4.466;2023-05-07T01:44:21;56481.97;;;-144.48;100.00
68758;BME280;55747;51.998;4.466;2023-05-07T01:46:47;56513.00;;;-144.48;100.00
68758;BME280;55747;51.998;4.466;2023-05-07T01:49:12;56481.97;;;-144.48;100.00
68758;BME280;55747;51.998;4.466;2023-05-07T01:51:38;56500.59;;;-144.48;100.00
68758;BME280;55747;51.998;4.466;2023-05-07T01:54:04;56529.53;;;-144.48;100.00
68758;BME280;55747;51.998;4.466;2023-05-07T01:56:30;56513.00;;;-144.48;100.00
68758;BME280;55747;51.998;4.466;2023-05-07T01:58:55;56492.31;;;-144.48;100.00
68758;BME280;55747;51.998;4.466;2023-05-07T02:01:20;56517.13;;;-144.48;100.00
68758;BME280;55747;51.998;4.466;2023-05-07T02:03:45;56529.53;;;-144.48;100.00
68758;BME280;55747;51.998;4.466;2023-05-07T02:06:11;56488.19;;;-144.48;100.00
68758;BME280;55747;51.998;4.466;2023-05-07T02:08:36;56533.66;;;-144.48;100.00
68758;BME280;55747;51.998;4.466;2023-05-07T02:11:01;56492.31;;;-144.48;100.00
68758;BME280;55747;51.998;4.466;2023-05-07T02:13:28;56517.13;;;-144.48;100.00
68758;BME280;55747;51.998;4.466;2023-05-07T02:15:54;56500.59;;;-144.48;100.00
68758;BME280;55747;51.998;4.466;2023-05-07T02:18:19;56539.88;;;-144.48;100.00
68758;BME280;55747;51.998;4.466;2023-05-07T02:20:44;56513.00;;;-144.48;100.00
68758;BME280;55747;51.998;4.466;2023-05-07T02:23:10;56498.53;;;-144.48;100.00
68758;BME280;55747;51.998;4.466;2023-05-07T02:25:35;56513.00;;;-144.48;100.00
68758;BME280;55747;51.998;4.466;2023-05-07T02:28:00;56517.13;;;-144.48;100.00
68758;BME280;55747;51.998;4.466;2023-05-07T02:30:25;56548.13;;;-144.48;100.00
68758;BME280;55747;51.998;4.466;2023-05-07T02:32:50;56519.19;;;-144.48;100.00
68758;BME280;55747;51.998;4.466;2023-05-07T02:35:16;56513.00;;;-144.48;100.00
68758;BME280;55747;51.998;4.466;2023-05-07T02:37:41;56513.00;;;-144.48;100.00
68758;BME280;55747;51.998;4.466;2023-05-07T02:40:06;56541.94;;;-144.48;100.00
68758;BME280;55747;51.998;4.466;2023-05-07T02:42:32;56517.13;;;-144.48;100.00
68758;BME280;55747;51.998;4.466;2023-05-07T02:44:57;56531.59;;;-144.48;100.00
68758;BME280;55747;51.998;4.466;2023-05-07T02:47:22;56506.78;;;-144.48;100.00
68758;BME280;55747;51.998;4.466;2023-05-07T02:49:47;56484.06;;;-144.48;100.00
68758;BME280;55747;51.998;4.466;2023-05-07T02:52:12;56521.25;;;-144.48;100.00
68758;BME280;55747;51.998;4.466;2023-05-07T02:54:38;56498.53;;;-144.48;100.00
68758;BME280;55747;51.998;4.466;2023-05-07T02:57:03;56523.34;;;-144.48;100.00
68758;BME280;55747;51.998;4.466;2023-05-07T02:59:28;56527.47;;;-144.48;100.00
68758;BME280;55747;51.998;4.466;2023-05-07T03:01:53;56523.34;;;-144.48;100.00
68758;BME280;55747;51.998;4.466;2023-05-07T03:04:18;56500.59;;;-144.48;100.00
68758;BME280;55747;51.998;4.466;2023-05-07T03:06:44;56544.00;;;-144.48;100.00
68758;BME280;55747;51.998;4.466;2023-05-07T03:09:09;56517.13;;;-144.48;100.00
68758;BME280;55747;51.998;4.466;2023-05-07T03:11:34;56529.53;;;-144.48;100.00
68758;BME280;55747;51.998;4.466;2023-05-07T03:14:00;56521.25;;;-144.48;100.00
68758;BME280;55747;51.998;4.466;2023-05-07T03:16:26;56498.53;;;-144.48;100.00
68758;BME280;55747;51.998;4.466;2023-05-07T03:18:51;56539.88;;;-144.48;100.00
68758;BME280;55747;51.998;4.466;2023-05-07T03:21:16;56486.13;;;-144.48;100.00
68758;BME280;55747;51.998;4.466;2023-05-07T03:23:42;56535.75;;;-144.48;100.00
68758;BME280;55747;51.998;4.466;2023-05-07T03:26:07;56492.31;;;-144.48;100.00
68758;BME280;55747;51.998;4.466;2023-05-07T03:28:32;56523.34;;;-144.48;100.00
68758;BME280;55747;51.998;4.466;2023-05-07T03:30:57;56541.94;;;-144.48;100.00
68758;BME280;55747;51.998;4.466;2023-05-07T03:33:22;56504.72;;;-144.48;100.00
68758;BME280;55747;51.998;4.466;2023-05-07T03:35:48;56515.06;;;-144.48;100.00
68758;BME280;55747;51.998;4.466;2023-05-07T03:38:13;56486.13;;;-144.48;100.00
68758;BME280;55747;51.998;4.466;2023-05-07T03:40:38;56548.13;;;-144.48;100.00
68758;BME280;55747;51.998;4.466;2023-05-07T03:43:03;56525.41;;;-144.48;100.00
68758;BME280;55747;51.998;4.466;2023-05-07T03:45:28;56529.53;;;-144.48;100.00
68758;BME280;55747;51.998;4.466;2023-05-07T03:47:54;56504.72;;;-144.48;100.00
68758;BME280;55747;51.998;4.466;2023-05-07T03:50:19;56525.41;;;-144.48;100.00
68758;BME280;55747;51.998;4.466;2023-05-07T03:52:44;56519.19;;;-144.48;100.00
68758;BME280;55747;51.998;4.466;2023-05-07T03:55:10;56488.19;;;-144.48;100.00
68758;BME280;55747;51.998;4.466;2023-05-07T03:57:35;56529.53;;;-144.48;100.00
68758;BME280;55747;51.998;4.466;2023-05-07T04:00:00;56525.41;;;-144.48;100.00
68758;BME280;55747;51.998;4.466;2023-05-07T04:02:25;56535.75;;;-144.48;100.00
68758;BME280;55747;51.998;4.466;2023-05-07T04:04:51;56533.66;;;-144.48;100.00
68758;BME280;55747;51.998;4.466;2023-05-07T04:07:16;56533.66;;;-144.48;100.00
68758;BME280;55747;51.998;4.466;2023-05-07T04:09:42;56496.44;;;-144.48;100.00
68758;BME280;55747;51.998;4.466;2023-05-07T04:12:07;56537.81;;;-144.48;100.00
68758;BME280;55747;51.998;4.466;2023-05-07T04:14:32;56527.47;;;-144.48;100.00
68758;BME280;55747;51.998;4.466;2023-05-07T04:17:00;56541.94;;;-144.48;100.00
68758;BME280;55747;51.998;4.466;2023-05-07T04:19:25;56533.66;;;-144.48;100.00
68758;BME280;55747;51.998;4.466;2023-05-07T04:21:51;56488.19;;;-144.48;100.00
68758;BME280;55747;51.998;4.466;2023-05-07T04:24:16;56531.59;;;-144.48;100.00
68758;BME280;55747;51.998;4.466;2023-05-07T04:26:41;56539.88;;;-144.48;100.00
68758;BME280;55747;51.998;4.466;2023-05-07T04:29:06;56539.88;;;-144.48;100.00
68758;BME280;55747;51.998;4.466;2023-05-07T04:31:32;56539.88;;;-144.48;100.00
68758;BME280;55747;51.998;4.466;2023-05-07T04:33:57;56519.19;;;-144.48;100.00
68758;BME280;55747;51.998;4.466;2023-05-07T04:36:22;56558.47;;;-144.48;100.00
68758;BME280;55747;51.998;4.466;2023-05-07T04:38:47;56535.75;;;-144.48;100.00
68758;BME280;55747;51.998;4.466;2023-05-07T04:41:13;56523.34;;;-144.48;100.00
68758;BME280;55747;51.998;4.466;2023-05-07T04:43:38;56529.53;;;-144.48;100.00
68758;BME280;55747;51.998;4.466;2023-05-07T04:46:03;56533.66;;;-144.48;100.00
68758;BME280;55747;51.998;4.466;2023-05-07T04:48:28;56544.00;;;-144.48;100.00
68758;BME280;55747;51.998;4.466;2023-05-07T04:50:54;56537.81;;;-144.48;100.00
68758;BME280;55747;51.998;4.466;2023-05-07T04:53:19;56552.28;;;-144.48;100.00
68758;BME280;55747;51.998;4.466;2023-05-07T04:55:45;56548.13;;;-144.48;100.00
68758;BME280;55747;51.998;4.466;2023-05-07T04:58:10;56515.06;;;-144.48;100.00
68758;BME280;55747;51.998;4.466;2023-05-07T05:00:35;56531.59;;;-144.48;100.00
68758;BME280;55747;51.998;4.466;2023-05-07T05:03:01;56562.63;;;-144.48;100.00
68758;BME280;55747;51.998;4.466;2023-05-07T05:05:26;56517.13;;;-144.48;100.00
68758;BME280;55747;51.998;4.466;2023-05-07T05:07:51;56500.59;;;-144.48;100.00
68758;BME280;55747;51.998;4.466;2023-05-07T05:10:17;56525.41;;;-144.48;100.00
68758;BME280;55747;51.998;4.466;2023-05-07T05:12:42;56525.41;;;-144.48;100.00
68758;BME280;55747;51.998;4.466;2023-05-07T05:15:07;56525.41;;;-144.48;100.00
68758;BME280;55747;51.998;4.466;2023-05-07T05:17:33;56552.28;;;-144.48;100.00
68758;BME280;55747;51.998;4.466;2023-05-07T05:19:59;56554.34;;;-144.48;100.00
68758;BME280;55747;51.998;4.466;2023-05-07T05:22:25;56515.06;;;-144.48;100.00
68758;BME280;55747;51.998;4.466;2023-05-07T05:24:50;56523.34;;;-144.48;100.00
68758;BME280;55747;51.998;4.466;2023-05-07T05:27:15;56529.53;;;-144.48;100.00
68758;BME280;55747;51.998;4.466;2023-05-07T05:29:41;56513.00;;;-144.48;100.00
68758;BME280;55747;51.998;4.466;2023-05-07T05:32:06;56500.59;;;-144.48;100.00
68758;BME280;55747;51.998;4.466;2023-05-07T05:34:31;56519.19;;;-144.48;100.00
68758;BME280;55747;51.998;4.466;2023-05-07T05:36:58;56535.75;;;-144.48;100.00
68758;BME280;55747;51.998;4.466;2023-05-07T05:39:23;56517.13;;;-144.48;100.00
68758;BME280;55747;51.998;4.466;2023-05-07T05:41:48;56510.94;;;-144.48;100.00
68758;BME280;55747;51.998;4.466;2023-05-07T05:44:14;56527.47;;;-144.48;100.00
68758;BME280;55747;51.998;4.466;2023-05-07T05:46:39;56550.22;;;-144.48;100.00
68758;BME280;55747;51.998;4.466;2023-05-07T05:49:04;56566.75;;;-144.48;100.00
68758;BME280;55747;51.998;4.466;2023-05-07T05:51:30;56525.41;;;-144.48;100.00
68758;BME280;55747;51.998;4.466;2023-05-07T05:53:55;56544.00;;;-144.48;100.00
68758;BME280;55747;51.998;4.466;2023-05-07T05:56:20;56568.81;;;-144.48;100.00
68758;BME280;55747;51.998;4.466;2023-05-07T05:58:46;56562.63;;;-144.48;100.00
68758;BME280;55747;51.998;4.466;2023-05-07T06:01:11;56533.66;;;-144.48;100.00
68758;BME280;55747;51.998;4.466;2023-05-07T06:03:36;56496.44;;;-144.48;100.00
68758;BME280;55747;51.998;4.466;2023-05-07T06:06:02;56541.94;;;-144.48;100.00
68758;BME280;55747;51.998;4.466;2023-05-07T06:08:32;56544.00;;;-144.48;100.00
68758;BME280;55747;51.998;4.466;2023-05-07T06:10:58;56533.66;;;-144.48;100.00
68758;BME280;55747;51.998;4.466;2023-05-07T06:13:23;56517.13;;;-144.48;100.00
68758;BME280;55747;51.998;4.466;2023-05-07T06:15:49;56519.19;;;-144.48;100.00
68758;BME280;55747;51.998;4.466;2023-05-07T06:18:14;56564.69;;;-144.48;100.00
68758;BME280;55747;51.998;4.466;2023-05-07T06:20:39;56548.13;;;-144.48;100.00
68758;BME280;55747;51.998;4.466;2023-05-07T06:23:04;56513.00;;;-144.48;100.00
68758;BME280;55747;51.998;4.466;2023-05-07T06:25:30;56535.75;;;-144.48;100.00
68758;BME280;55747;51.998;4.466;2023-05-07T06:27:55;56550.22;;;-144.48;100.00
68758;BME280;55747;51.998;4.466;2023-05-07T06:30:20;56490.25;;;-144.48;100.00
68758;BME280;55747;51.998;4.466;2023-05-07T06:32:45;56519.19;;;-144.48;100.00
68758;BME280;55747;51.998;4.466;2023-05-07T06:35:11;56535.75;;;-144.48;100.00
68758;BME280;55747;51.998;4.466;2023-05-07T06:37:36;56490.25;;;-144.48;100.00
68758;BME280;55747;51.998;4.466;2023-05-07T06:40:03;56513.00;;;-144.48;100.00
68758;BME280;55747;51.998;4.466;2023-05-07T06:42:29;56529.53;;;-144.48;100.00
68758;BME280;55747;51.998;4.466;2023-05-07T06:44:54;56533.66;;;-144.48;100.00
68758;BME280;55747;51.998;4.466;2023-05-07T06:47:20;56510.94;;;-144.48;100.00
68758;BME280;55747;51.998;4.466;2023-05-07T06:49:45;56525.41;;;-144.48;100.00
68758;BME280;55747;51.998;4.466;2023-05-07T06:52:10;56554.34;;;-144.48;100.00
68758;BME280;55747;51.998;4.466;2023-05-07T06:54:35;56513.00;;;-144.48;100.00
68758;BME280;55747;51.998;4.466;2023-05-07T06:57:00;56494.38;;;-144.48;100.00
68758;BME280;55747;51.998;4.466;2023-05-07T06:59:26;56502.66;;;-144.48;100.00
68758;BME280;55747;51.998;4.466;2023-05-07T07:01:51;56502.66;;;-144.48;100.00
68758;BME280;55747;51.998;4.466;2023-05-07T07:04:16;56539.88;;;-144.48;100.00
68758;BME280;55747;51.998;4.466;2023-05-07T07:06:41;56506.78;;;-144.48;100.00
68758;BME280;55747;51.998;4.466;2023-05-07T07:09:07;56502.66;;;-144.48;100.00
68758;BME280;55747;51.998;4.466;2023-05-07T07:11:32;56498.53;;;-144.48;100.00
68758;BME280;55747;51.998;4.466;2023-05-07T07:13:57;56504.72;;;-144.48;100.00
68758;BME280;55747;51.998;4.466;2023-05-07T07:16:23;56484.06;;;-144.48;100.00
68758;BME280;55747;51.998;4.466;2023-05-07T07:18:49;56494.38;;;-144.48;100.00
68758;BME280;55747;51.998;4.466;2023-05-07T07:21:14;56494.38;;;-144.48;97.17
68758;BME280;55747;51.998;4.466;2023-05-07T07:23:42;56527.47;;;-144.48;100.00
68758;BME280;55747;51.998;4.466;2023-05-07T07:26:07;56465.44;;;-144.48;100.00
68758;BME280;55747;51.998;4.466;2023-05-07T07:28:32;56488.19;;;-144.48;100.00
68758;BME280;55747;51.998;4.466;2023-05-07T07:30:57;56475.78;;;-144.48;100.00
68758;BME280;55747;51.998;4.466;2023-05-07T07:33:23;56498.53;;;-144.48;100.00
68758;BME280;55747;51.998;4.466;2023-05-07T07:35:48;56500.59;;;-144.48;100.00
68758;BME280;55747;51.998;4.466;2023-05-07T07:38:13;56459.25;;;-144.48;100.00
68758;BME280;55747;51.998;4.466;2023-05-07T07:40:39;56490.25;;;-144.48;100.00
68758;BME280;55747;51.998;4.466;2023-05-07T07:43:04;56508.84;;;-144.48;100.00
68758;BME280;55747;51.998;4.466;2023-05-07T07:45:30;56481.97;;;-144.48;100.00
68758;BME280;55747;51.998;4.466;2023-05-07T07:47:55;56479.91;;;-144.48;100.00
68758;BME280;55747;51.998;4.466;2023-05-07T07:50:20;56475.78;;;-144.48;99.83
68758;BME280;55747;51.998;4.466;2023-05-07T07:52:45;56484.06;;;-144.48;95.86
68758;BME280;55747;51.998;4.466;2023-05-07T07:55:11;56486.13;;;-144.48;91.21
68758;BME280;55747;51.998;4.466;2023-05-07T07:57:37;56471.66;;;-144.48;91.56
68758;BME280;55747;51.998;4.466;2023-05-07T08:00:02;56448.91;;;-144.48;93.59
68758;BME280;55747;51.998;4.466;2023-05-07T08:02:28;56442.69;;;-144.48;94.03
68758;BME280;55747;51.998;4.466;2023-05-07T08:04:53;56481.97;;;-144.48;93.03
68758;BME280;55747;51.998;4.466;2023-05-07T08:07:18;56473.72;;;-144.48;96.67
68758;BME280;55747;51.998;4.466;2023-05-07T08:09:45;56481.97;;;-144.48;100.00
68758;BME280;55747;51.998;4.466;2023-05-07T08:12:10;56525.41;;;-144.48;100.00
68758;BME280;55747;51.998;4.466;2023-05-07T08:14:36;56494.38;;;-144.48;100.00
68758;BME280;55747;51.998;4.466;2023-05-07T08:17:02;56490.25;;;-144.48;100.00
68758;BME280;55747;51.998;4.466;2023-05-07T08:19:27;56463.38;;;-144.48;97.55
68758;BME280;55747;51.998;4.466;2023-05-07T08:21:52;56450.97;;;-144.48;98.38
68758;BME280;55747;51.998;4.466;2023-05-07T08:24:17;56490.25;;;-144.48;98.56
68758;BME280;55747;51.998;4.466;2023-05-07T08:26:43;56475.78;;;-144.48;99.72
68758;BME280;55747;51.998;4.466;2023-05-07T08:29:08;56484.06;;;-144.48;98.75
68758;BME280;55747;51.998;4.466;2023-05-07T08:31:34;56475.78;;;-144.48;98.44
68758;BME280;55747;51.998;4.466;2023-05-07T08:33:59;56469.56;;;-144.48;96.88
68758;BME280;55747;51.998;4.466;2023-05-07T08:36:24;56453.03;;;-144.48;95.01
68758;BME280;55747;51.998;4.466;2023-05-07T08:38:50;56492.31;;;-144.48;93.78
68758;BME280;55747;51.998;4.466;2023-05-07T08:41:15;56459.25;;;-144.48;93.96
68758;BME280;55747;51.998;4.466;2023-05-07T08:43:41;56459.25;;;-144.48;91.56
68758;BME280;55747;51.998;4.466;2023-05-07T08:46:06;56486.13;;;-144.48;90.75
68758;BME280;55747;51.998;4.466;2023-05-07T08:48:33;56450.97;;;-144.48;88.59
68758;BME280;55747;51.998;4.466;2023-05-07T08:50:59;56434.44;;;-144.48;80.04
68758;BME280;55747;51.998;4.466;2023-05-07T08:53:24;56465.44;;;-144.48;77.84
68758;BME280;55747;51.998;4.466;2023-05-07T08:55:49;56430.28;;;-144.48;75.73
68758;BME280;55747;51.998;4.466;2023-05-07T08:58:15;56426.16;;;-144.48;69.33
68758;BME280;55747;51.998;4.466;2023-05-07T09:00:40;56428.22;;;-144.48;69.39
68758;BME280;55747;51.998;4.466;2023-05-07T09:03:06;56417.91;;;-144.48;70.75
68758;BME280;55747;51.998;4.466;2023-05-07T09:05:31;56448.91;;;-144.48;69.92
68758;BME280;55747;51.998;4.466;2023-05-07T09:08:01;56409.63;;;-144.48;65.04
68758;BME280;55747;51.998;4.466;2023-05-07T09:10:29;56386.88;;;-144.48;63.52
68758;BME280;55747;51.998;4.466;2023-05-07T09:12:54;56434.44;;;-144.48;65.47
68758;BME280;55747;51.998;4.466;2023-05-07T09:15:20;56430.28;;;-144.48;66.54
68758;BME280;55747;51.998;4.466;2023-05-07T09:17:45;56413.75;;;-144.48;68.53
68758;BME280;55747;51.998;4.466;2023-05-07T09:20:10;56442.69;;;-144.48;72.10
68758;BME280;55747;51.998;4.466;2023-05-07T09:22:36;56438.56;;;-144.48;71.81
68758;BME280;55747;51.998;4.466;2023-05-07T09:25:07;56434.44;;;-144.48;75.30
68758;BME280;55747;51.998;4.466;2023-05-07T09:27:34;56455.09;;;-144.48;76.71
68758;BME280;55747;51.998;4.466;2023-05-07T09:30:02;56432.38;;;-144.48;77.87
68758;BME280;55747;51.998;4.466;2023-05-07T09:32:27;56457.19;;;-144.48;77.66
68758;BME280;55747;51.998;4.466;2023-05-07T09:34:53;56428.22;;;-144.48;76.78
68758;BME280;55747;51.998;4.466;2023-05-07T09:37:20;56442.69;;;-144.48;80.41
68758;BME280;55747;51.998;4.466;2023-05-07T09:39:47;56455.09;;;-144.48;79.85
68758;BME280;55747;51.998;4.466;2023-05-07T09:42:12;56417.91;;;-144.48;76.96
68758;BME280;55747;51.998;4.466;2023-05-07T09:44:39;56463.38;;;-144.48;75.95
68758;BME280;55747;51.998;4.466;2023-05-07T09:47:05;56430.28;;;-144.48;74.00
68758;BME280;55747;51.998;4.466;2023-05-07T09:49:33;56411.69;;;-144.48;68.92
68758;BME280;55747;51.998;4.466;2023-05-07T09:51:59;56397.22;;;-144.48;68.25
68758;BME280;55747;51.998;4.466;2023-05-07T09:54:25;56395.16;;;-144.48;63.82
68758;BME280;55747;51.998;4.466;2023-05-07T09:56:51;56384.81;;;-144.48;62.45
68758;BME280;55747;51.998;4.466;2023-05-07T09:59:17;56409.63;;;-144.48;60.35
68758;BME280;55747;51.998;4.466;2023-05-07T10:01:42;56413.75;;;-144.48;64.66
68758;BME280;55747;51.998;4.466;2023-05-07T10:04:08;56399.28;;;-144.48;69.86
68758;BME280;55747;51.998;4.466;2023-05-07T10:06:34;56424.09;;;-144.48;74.36
68758;BME280;55747;51.998;4.466;2023-05-07T10:09:00;56434.44;;;-144.48;72.22
68758;BME280;55747;51.998;4.466;2023-05-07T10:11:25;56415.81;;;-144.48;71.83
68758;BME280;55747;51.998;4.466;2023-05-07T10:13:51;56419.97;;;-144.48;70.39
68758;BME280;55747;51.998;4.466;2023-05-07T10:16:16;56401.34;;;-144.48;66.54
68758;BME280;55747;51.998;4.466;2023-05-07T10:18:42;56386.88;;;-144.48;60.86
68758;BME280;55747;51.998;4.466;2023-05-07T10:21:08;56366.22;;;-144.48;53.48
68758;BME280;55747;51.998;4.466;2023-05-07T10:23:35;56335.19;;;-144.48;52.33
68758;BME280;55747;51.998;4.466;2023-05-07T10:26:02;56372.41;;;-144.48;49.38
68758;BME280;55747;51.998;4.466;2023-05-07T10:28:28;56366.22;;;-144.48;53.31
68758;BME280;55747;51.998;4.466;2023-05-07T10:31:07;56349.66;;;-144.48;55.93
68758;BME280;55747;51.998;4.466;2023-05-07T10:33:35;56419.97;;;-144.48;56.47
68758;BME280;55747;51.998;4.466;2023-05-07T10:36:02;56378.63;;;-144.48;56.94
68758;BME280;55747;51.998;4.466;2023-05-07T10:38:30;56393.09;;;-144.48;58.64
68758;BME280;55747;51.998;4.466;2023-05-07T10:40:56;56368.28;;;-144.48;56.27
68758;BME280;55747;51.998;4.466;2023-05-07T10:43:21;56397.22;;;-144.48;60.45
68758;BME280;55747;51.998;4.466;2023-05-07T10:46:29;56438.56;;;-144.48;65.11
68758;BME280;55747;51.998;4.466;2023-05-07T10:48:49;56415.81;;;-144.48;68.27
68758;BME280;55747;51.998;4.466;2023-05-07T10:51:23;56399.28;;;-144.48;66.27
68758;BME280;55747;51.998;4.466;2023-05-07T10:53:48;56411.69;;;-144.48;66.39
68758;BME280;55747;51.998;4.466;2023-05-07T10:56:37;56388.94;;;-144.48;68.83
68758;BME280;55747;51.998;4.466;2023-05-07T11:01:53;56409.63;;;-144.48;67.35
68758;BME280;55747;51.998;4.466;2023-05-07T11:04:19;56428.22;;;-144.48;62.14
68758;BME280;55747;51.998;4.466;2023-05-07T11:10:11;56422.03;;;-144.48;63.24
68758;BME280;55747;51.998;4.466;2023-05-07T11:15:04;56409.63;;;-144.48;64.28
68758;BME280;55747;51.998;4.466;2023-05-07T11:17:29;56413.75;;;-144.48;65.86
68758;BME280;55747;51.998;4.466;2023-05-07T11:19:57;56413.75;;;-144.48;66.82
68758;BME280;55747;51.998;4.466;2023-05-07T11:24:59;56430.28;;;-144.48;65.03
68758;BME280;55747;51.998;4.466;2023-05-07T11:27:25;56399.28;;;-144.48;66.54
68758;BME280;55747;51.998;4.466;2023-05-07T11:29:51;56374.47;;;-144.48;65.03
68758;BME280;55747;51.998;4.466;2023-05-07T11:32:22;56393.09;;;-144.48;61.27
68758;BME280;55747;51.998;4.466;2023-05-07T11:34:47;56409.63;;;-144.48;61.13
68758;BME280;55747;51.998;4.466;2023-05-07T11:37:16;56374.47;;;-144.48;61.23
68758;BME280;55747;51.998;4.466;2023-05-07T11:39:42;56397.22;;;-144.48;60.84
68758;BME280;55747;51.998;4.466;2023-05-07T11:42:07;56419.97;;;-144.48;62.08
68758;BME280;55747;51.998;4.466;2023-05-07T11:44:49;56395.16;;;-144.48;66.42
68758;BME280;55747;51.998;4.466;2023-05-07T11:47:18;56413.75;;;-144.48;63.96
68758;BME280;55747;51.998;4.466;2023-05-07T11:49:45;56384.81;;;-144.48;64.70
68758;BME280;55747;51.998;4.466;2023-05-07T11:52:12;56403.41;;;-144.48;62.46
68758;BME280;55747;51.998;4.466;2023-05-07T11:54:37;56415.81;;;-144.48;62.99
68758;BME280;55747;51.998;4.466;2023-05-07T11:57:03;56382.75;;;-144.48;65.76
68758;BME280;55747;51.998;4.466;2023-05-07T11:59:28;56422.03;;;-144.48;63.76
68758;BME280;55747;51.998;4.466;2023-05-07T12:01:56;56426.16;;;-144.48;64.87
68758;BME280;55747;51.998;4.466;2023-05-07T12:04:22;56393.09;;;-144.48;65.92
68758;BME280;55747;51.998;4.466;2023-05-07T12:06:47;56438.56;;;-144.48;71.26
68758;BME280;55747;51.998;4.466;2023-05-07T12:09:12;56395.16;;;-144.48;72.25
68758;BME280;55747;51.998;4.466;2023-05-07T12:11:38;56417.91;;;-144.48;74.25
68758;BME280;55747;51.998;4.466;2023-05-07T12:14:04;56424.09;;;-144.48;75.62
68758;BME280;55747;51.998;4.466;2023-05-07T12:16:30;56428.22;;;-144.48;74.85
68758;BME280;55747;51.998;4.466;2023-05-07T12:18:55;56403.41;;;-144.48;74.62
68758;BME280;55747;51.998;4.466;2023-05-07T12:21:23;56419.97;;;-144.48;74.25
68758;BME280;55747;51.998;4.466;2023-05-07T12:23:50;56432.38;;;-144.48;74.83
68758;BME280;55747;51.998;4.466;2023-05-07T12:26:15;56417.91;;;-144.48;78.40
68758;BME280;55747;51.998;4.466;2023-05-07T12:28:40;56382.75;;;-144.48;80.26
68758;BME280;55747;51.998;4.466;2023-05-07T12:31:06;56403.41;;;-144.48;80.83
68758;BME280;55747;51.998;4.466;2023-05-07T12:33:31;56428.22;;;-144.48;82.03
68758;BME280;55747;51.998;4.466;2023-05-07T12:35:57;56424.09;;;-144.48;81.95
68758;BME280;55747;51.998;4.466;2023-05-07T12:38:23;56438.56;;;-144.48;82.45